Latest Weather Observations for Deniliquin

IDN60801

Issued at 2:22 pm EDT Sunday 17 February 2019 (issued every 10 minutes, with the page automatically refreshed every 10 minutes)

About weather observations | Map of weather stations | Latest weather observations for NSW | Other Formats
Station Details ID: 074258 Name: DENILIQUIN AIRPORT AWS Lat: -35.56 Lon: 144.95 Height: 94.0 m
Data from the previous 72 hours. | See also: Recent months at Deniliquin
Date/Time
EDT
Temp
°C
App
Temp
°C
Dew
Point
°C
Rel
Hum
%
Delta-T
°C
Wind Press
QNH
hPa
Press
MSL
hPa
Rain since
9am
mm
Dir  Spd
km/h
Gust
km/h
Spd
kts
Gust
kts
17/02:00pm 34.1 30.5 0.7 12 16.7 WNW 9 17 5 9 1010.3 1009.9 0.0
17/01:30pm 34.8 30.9 1.2 12 17.0 SSW 11 20 6 11 1010.6 1010.2 0.0
17/01:00pm 33.4 30.2 3.3 15 15.6 W 9 17 5 9 1011.1 1010.7 0.0
17/12:30pm 33.1 30.1 3.9 16 15.2 N 9 19 5 10 1011.6 1011.2 0.0
17/12:00pm 32.4 30.1 7.3 21 13.8 NNE 9 17 5 9 1012.0 1011.6 0.0
17/11:30am 31.6 30.0 8.0 23 13.1 N 6 13 3 7 1012.3 1011.9 0.0
17/11:00am 29.7 29.7 9.8 29 11.2 CALM 0 6 0 3 1012.5 1012.1 0.0
17/10:30am 28.4 28.4 11.0 34 10.0 ESE 2 6 1 3 1012.6 1012.2 0.0
17/10:00am 25.4 25.2 11.9 43 7.7 ESE 4 9 2 5 1012.6 1012.2 0.0
17/09:30am 23.1 22.4 12.1 50 6.3 ESE 7 9 4 5 1012.6 1012.2 0.0
17/09:00am 21.4 21.0 12.5 57 5.1 ESE 6 7 3 4 1012.5 1012.1 0.0
17/08:30am 20.7 21.1 12.4 59 4.7 E 2 7 1 4 1012.6 1012.2 0.0
17/08:00am 18.3 18.5 11.8 66 3.6 NNE 2 11 1 6 1012.7 1012.3 0.0
17/07:30am 15.7 14.8 10.5 71 2.8 SW 6 9 3 5 1012.3 1011.9 0.0
17/07:00am 15.5 14.4 10.5 72 2.7 WSW 7 9 4 5 1012.0 1011.6 0.0
17/06:30am 16.0 14.9 10.5 70 2.9 SW 7 9 4 5 1011.7 1011.3 0.0
17/06:00am 17.4 17.8 11.4 68 3.3 CALM 0 0 0 0 1011.3 1010.9 0.0
17/05:30am 17.9 18.3 11.2 65 3.6 CALM 0 0 0 0 1011.2 1010.8 0.0
17/05:00am 17.4 16.3 10.5 64 3.7 SSW 7 9 4 5 1011.4 1011.0 0.0
17/04:30am 17.9 16.7 10.3 61 4.1 S 7 7 4 4 1011.5 1011.1 0.0
17/04:00am 18.6 17.4 10.4 59 4.4 SSE 7 7 4 4 1011.7 1011.3 0.0
17/03:30am 18.9 17.8 10.7 59 4.4 SSE 7 9 4 5 1011.9 1011.5 0.0
17/03:00am 19.7 17.5 10.7 56 4.9 SSE 13 15 7 8 1012.0 1011.6 0.0
17/02:30am 19.9 17.7 9.2 50 5.7 SSE 11 17 6 9 1012.2 1011.8 0.0
17/02:00am 21.1 18.3 8.7 45 6.6 SSE 13 17 7 9 1012.3 1011.9 0.0
17/01:30am 21.5 17.9 6.6 38 7.6 SSE 15 17 8 9 1012.5 1012.1 0.0
17/01:00am 21.1 17.4 4.6 34 8.1 S 13 17 7 9 1012.7 1012.3 0.0
17/12:30am 21.9 19.8 4.0 31 8.7 SSW 4 9 2 5 1012.8 1012.4 0.0
17/12:00am 22.7 21.0 4.2 30 9.1 SSW 2 6 1 3 1012.8 1012.4 0.0
 
Date/Time
EDT
Temp
°C
App
Temp
°C
Dew
Point
°C
Rel
Hum
%
Delta-T
°C
Wind Press
QNH
hPa
Press
MSL
hPa
Rain since
9am
mm
Dir  Spd
km/h
Gust
km/h
Spd
kts
Gust
kts
16/11:30pm 22.8 19.1 4.3 30 9.1 SSW 13 15 7 8 1012.9 1012.5 0.0
16/11:00pm 23.8 20.8 4.2 28 9.7 SSW 9 11 5 6 1013.0 1012.6 0.0
16/10:30pm 23.6 19.9 4.5 29 9.5 SW 13 13 7 7 1013.1 1012.7 0.0
16/10:00pm 25.1 21.6 3.7 25 10.6 SSW 11 11 6 6 1013.0 1012.6 0.0
16/09:30pm 25.3 21.9 3.9 25 10.6 SW 11 11 6 6 1012.9 1012.5 0.0
16/09:00pm 26.5 22.5 3.1 22 11.6 SW 13 15 7 8 1012.7 1012.3 0.0
16/08:30pm 28.6 24.8 2.0 18 13.1 SW 11 13 6 7 1012.6 1012.2 0.0
16/08:00pm 30.8 26.5 1.2 15 14.6 WSW 13 15 7 8 1012.5 1012.1 0.0
16/07:30pm 32.8 28.5 0.8 13 15.8 WSW 13 17 7 9 1012.4 1012.0 0.0
16/07:00pm 33.4 29.7 0.1 12 16.4 SW 9 15 5 8 1012.3 1011.9 0.0
16/06:30pm 34.0 29.1 -0.6 11 16.9 WSW 15 24 8 13 1012.5 1012.1 0.0
16/06:00pm 34.6 30.7 1.1 12 16.9 WSW 11 15 6 8 1012.6 1012.2 0.0
16/05:30pm 34.2 31.0 0.8 12 16.7 SSE 7 15 4 8 1012.7 1012.3 0.0
16/05:00pm 34.1 29.0 0.7 12 16.7 WSW 17 24 9 13 1013.0 1012.6 0.0
16/04:30pm 34.1 28.6 0.7 12 16.7 W 19 28 10 15 1013.2 1012.8 0.0
16/04:00pm 34.2 30.2 2.9 14 16.2 WNW 13 22 7 12 1013.6 1013.2 0.0
16/03:30pm 33.2 29.8 4.0 16 15.3 SE 11 22 6 12 1013.9 1013.5 0.0
16/03:00pm 33.2 30.0 4.9 17 15.0 NW 11 17 6 9 1014.4 1014.0 0.0
16/02:30pm 33.1 29.8 4.8 17 15.0 SSE 11 17 6 9 1014.9 1014.5 0.0
16/02:00pm 32.2 29.7 4.9 18 14.4 NW 7 17 4 9 1015.6 1015.1 0.0
16/01:30pm 31.8 29.4 5.3 19 14.1 SSW 7 15 4 8 1015.9 1015.4 0.0
16/01:00pm 30.8 28.3 6.6 22 13.0 NNW 9 19 5 10 1016.4 1015.9 0.0
16/12:30pm 30.7 28.1 7.8 24 12.6 N 11 19 6 10 1016.8 1016.3 0.0
16/12:00pm 28.7 25.6 7.3 26 11.5 N 13 19 7 10 1017.3 1016.8 0.0
16/11:30am 28.4 24.6 7.6 27 11.3 N 17 22 9 12 1017.6 1017.1 0.0
16/11:00am 28.0 24.0 8.3 29 10.7 N 19 24 10 13 1017.7 1017.2 0.0
16/10:30am 26.1 21.9 8.1 32 9.7 N 20 28 11 15 1017.6 1017.1 0.0
16/10:00am 24.9 20.9 8.4 35 8.9 NNE 19 26 10 14 1017.7 1017.2 0.0
16/09:30am 24.0 20.6 9.2 39 8.0 NE 17 20 9 11 1017.7 1017.2 0.0
16/09:00am 22.6 20.6 10.1 45 6.8 ENE 11 17 6 9 1017.8 1017.3 0.0
16/08:30am 21.1 20.0 10.6 51 5.8 ENE 7 9 4 5 1017.6 1017.1 0.0
16/08:00am 18.7 18.0 12.0 65 3.7 E 7 9 4 5 1017.6 1017.1 0.0
16/07:30am 17.2 16.5 12.1 72 2.8 SE 7 9 4 5 1017.4 1016.9 0.0
16/07:00am 16.1 15.8 11.5 74 2.5 SSE 4 7 2 4 1017.4 1016.9 0.0
16/06:30am 16.3 15.5 11.7 74 2.5 SSE 7 9 4 5 1017.1 1016.6 0.0
16/06:00am 16.1 14.4 11.3 73 2.6 SE 11 13 6 7 1017.0 1016.5 0.0
16/05:30am 16.5 14.8 11.2 71 2.9 SSE 11 13 6 7 1017.0 1016.5 0.0
16/05:00am 17.2 15.4 10.8 66 3.4 SE 11 13 6 7 1017.1 1016.6 0.0
16/04:30am 17.0 15.5 10.6 66 3.4 SSE 9 20 5 11 1017.2 1016.7 0.0
16/04:00am 17.3 14.9 10.0 62 3.9 SSW 13 17 7 9 1017.0 1016.5 0.0
16/03:30am 18.3 17.1 10.2 59 4.3 SSE 7 9 4 5 1016.7 1016.2 0.0
16/03:00am 17.6 14.9 7.4 51 5.1 SE 11 13 6 7 1016.9 1016.4 0.0
16/02:30am 17.8 15.2 6.0 46 5.8 SE 9 13 5 7 1017.0 1016.5 0.0
16/02:00am 17.8 15.2 6.0 46 5.8 S 9 11 5 6 1017.2 1016.7 0.0
16/01:30am 18.6 16.8 5.5 42 6.4 S 4 6 2 3 1017.3 1016.8 0.0
16/01:00am 19.7 18.2 5.0 38 7.2 S 2 6 1 3 1017.4 1016.9 0.0
16/12:30am 20.1 17.8 4.6 36 7.5 SSW 6 7 3 4 1017.8 1017.3 0.0
16/12:00am 20.9 19.8 5.3 36 7.7 CALM 0 0 0 0 1017.8 1017.3 0.0
 
Date/Time
EDT
Temp
°C
App
Temp
°C
Dew
Point
°C
Rel
Hum
%
Delta-T
°C
Wind Press
QNH
hPa
Press
MSL
hPa
Rain since
9am
mm
Dir  Spd
km/h
Gust
km/h
Spd
kts
Gust
kts
15/11:30pm 20.8 19.6 4.4 34 8.0 CALM 0 0 0 0 1017.9 1017.4 0.0
15/11:00pm 21.8 20.5 3.9 31 8.7 CALM 0 0 0 0 1018.0 1017.5 0.0
15/10:30pm 22.4 20.4 4.5 31 8.8 SSW 4 6 2 3 1018.2 1017.7 0.0
15/10:00pm 23.7 21.3 2.0 24 10.3 SSW 4 7 2 4 1018.1 1017.6 0.0
15/09:30pm 25.6 22.7 1.7 21 11.4 SSW 6 9 3 5 1017.8 1017.3 0.0
15/09:00pm 27.0 24.9 -0.9 16 12.9 CALM 0 0 0 0 1017.4 1016.9 0.0
15/08:30pm 28.6 26.4 -1.5 14 13.9 CALM 0 0 0 0 1017.3 1016.8 0.0
15/08:00pm 29.8 26.6 -0.5 14 14.4 ENE 6 7 3 4 1017.2 1016.7 0.0
15/07:30pm 31.4 28.5 -1.4 12 15.5 NE 4 7 2 4 1017.1 1016.6 0.0
15/07:00pm 31.3 27.6 -2.6 11 15.7 NE 7 11 4 6 1017.1 1016.6 0.0
15/06:30pm 31.9 28.3 -2.2 11 16.0 S 7 13 4 7 1017.1 1016.6 0.0
15/06:00pm 31.7 27.9 -3.6 10 16.1 ESE 7 15 4 8 1017.2 1016.7 0.0
15/05:30pm 32.0 28.4 -2.1 11 16.0 ENE 7 15 4 8 1017.3 1016.8 0.0
15/05:00pm 31.8 27.7 0.0 13 15.4 ENE 11 20 6 11 1017.4 1016.9 0.0
15/04:30pm 31.8 28.6 1.0 14 15.2 S 7 17 4 9 1017.7 1017.2 0.0
15/04:00pm 31.4 28.4 0.7 14 15.0 ESE 6 11 3 6 1018.2 1017.7 0.0
15/03:30pm 31.1 27.1 0.5 14 14.9 S 11 20 6 11 1018.8 1018.4 0.0
15/03:00pm 30.1 26.6 1.5 16 14.0 NNW 9 15 5 8 1019.4 1019.0 0.0
15/02:30pm 30.1 26.9 0.6 15 14.3 NNE 7 15 4 8 1019.8 1019.4 0.0
15/02:00pm 30.2 26.5 2.5 17 13.8 SE 11 20 6 11 1020.1 1019.7 0.0
15/01:30pm 29.1 25.5 3.1 19 13.1 NNW 11 17 6 9 1020.4 1020.0 0.0
15/01:00pm 28.3 26.1 5.2 23 11.9 NE 6 11 3 6 1020.9 1020.5 0.0
15/12:30pm 27.3 25.2 5.6 25 11.3 NNE 6 13 3 7 1021.2 1020.8 0.0
15/12:00pm 26.6 24.0 6.1 27 10.7 ESE 9 15 5 8 1021.8 1021.4 0.0
15/11:30am 25.6 23.9 7.7 32 9.6 E 6 15 3 8 1022.1 1021.7 0.0
15/11:00am 24.6 21.9 7.3 33 9.1 ESE 11 17 6 9 1022.4 1022.0 0.0
15/10:30am 23.3 21.1 7.8 37 8.2 ESE 9 15 5 8 1022.6 1022.2 0.0
15/10:00am 22.7 20.5 9.5 43 7.1 ESE 11 17 6 9 1022.5 1022.1 0.0
15/09:30am 20.6 18.4 9.5 49 5.9 SE 11 15 6 8 1022.4 1022.0 0.0
15/09:00am 19.2 16.8 9.9 55 5.0 SSE 13 17 7 9 1022.3 1021.9 0.0
15/08:30am 17.5 15.1 9.9 61 4.0 S 13 17 7 9 1022.2 1021.8 0.0
15/08:00am 16.0 14.3 9.9 67 3.2 SSW 9 13 5 7 1021.9 1021.5 0.0
15/07:30am 13.7 12.1 8.7 72 2.5 SSW 7 9 4 5 1021.7 1021.3 0.0
15/07:00am 14.2 11.8 8.6 69 2.8 S 11 13 6 7 1021.2 1020.8 0.0
15/06:30am 14.6 11.8 8.5 67 3.1 S 13 15 7 8 1020.7 1020.3 0.0
15/06:00am 14.9 12.4 8.4 65 3.3 S 11 13 6 7 1020.2 1019.8 0.0
15/05:30am 15.3 12.3 7.8 61 3.8 S 13 17 7 9 1020.1 1019.7 0.0
15/05:00am 15.4 12.3 7.2 58 4.1 SSE 13 17 7 9 1019.9 1019.5 0.0
15/04:30am 16.0 12.4 6.7 54 4.6 S 15 17 8 9 1019.9 1019.5 0.0
15/04:00am 16.7 12.7 6.5 51 5.0 S 17 20 9 11 1019.9 1019.5 0.0
15/03:30am 16.6 12.8 5.9 49 5.2 S 15 19 8 10 1019.7 1019.3 0.0
15/03:00am 15.6 11.7 5.2 50 4.9 S 15 17 8 9 1019.8 1019.4 0.0
15/02:30am 14.3 11.5 5.1 54 4.3 SSW 9 13 5 7 1019.9 1019.5 0.0
15/02:00am 14.9 12.7 5.1 52 4.6 SW 6 7 3 4 1019.7 1019.3 0.0
15/01:30am 16.1 13.9 5.1 48 5.2 SW 6 9 3 5 1019.9 1019.5 0.0
15/01:00am 16.0 14.8 4.7 47 5.3 CALM 0 0 0 0 1020.0 1019.6 0.0
15/12:30am 16.2 14.2 4.6 46 5.5 SSW 4 6 2 3 1020.0 1019.6 0.0
15/12:00am 16.5 14.3 5.2 47 5.4 SSW 6 6 3 3 1020.1 1019.7 0.0
 
Date/Time
EDT
Temp
°C
App
Temp
°C
Dew
Point
°C
Rel
Hum
%
Delta-T
°C
Wind Press
QNH
hPa
Press
MSL
hPa
Rain since
9am
mm
Dir  Spd
km/h
Gust
km/h
Spd
kts
Gust
kts
14/11:30pm 17.3 14.9 4.3 42 6.2 SSW 6 7 3 4 1020.3 1019.9 0.0
14/11:00pm 17.9 15.5 4.1 40 6.5 SSW 6 6 3 3 1020.4 1020.0 0.0
14/10:30pm 18.6 16.4 3.3 36 7.2 SSW 4 6 2 3 1020.3 1019.9 0.0
14/10:00pm 19.6 16.8 2.0 31 8.1 SSW 6 7 3 4 1020.2 1019.8 0.0
14/09:30pm 19.9 16.6 2.7 32 8.0 SW 9 9 5 5 1020.0 1019.6 0.0
14/09:00pm 21.0 17.3 2.3 29 8.7 SSW 11 13 6 7 1019.4 1019.0 0.0
14/08:30pm 22.3 18.0 1.3 25 9.7 SW 13 15 7 8 1019.3 1018.9 0.0
14/08:00pm 24.3 19.3 1.2 22 10.8 SSW 17 22 9 12 1019.1 1018.7 0.0
14/07:30pm 25.2 19.7 0.7 20 11.5 SSW 19 24 10 13 1018.9 1018.5 0.0
14/07:00pm 25.9 20.4 0.5 19 11.9 SW 19 28 10 15 1018.6 1018.2 0.0
14/06:30pm 25.9 20.9 1.2 20 11.7 SW 17 26 9 14 1018.4 1017.9 0.0
14/06:00pm 25.9 20.5 1.2 20 11.7 SW 19 32 10 17 1018.4 1017.9 0.0
14/05:30pm 26.3 21.3 1.6 20 11.9 SW 17 26 9 14 1018.4 1017.9 0.0
14/05:00pm 25.9 21.0 1.9 21 11.5 SW 17 28 9 15 1018.5 1018.1 0.0
14/04:30pm 25.5 20.0 0.9 20 11.6 SW 19 28 10 15 1018.7 1018.3 0.0
14/04:00pm 25.8 21.5 1.2 20 11.7 WSW 13 24 7 13 1018.9 1018.5 0.0
14/03:30pm 24.7 19.7 1.6 22 11.0 SW 17 28 9 15 1019.1 1018.7 0.0
14/03:00pm 23.7 19.0 0.7 22 10.6 SW 15 28 8 15 1019.4 1019.0 0.0
14/02:30pm 23.5 18.5 1.2 23 10.4 SW 17 26 9 14 1019.7 1019.3 0.0

Other Formats:

Comma delimited format used in spreadsheet applications
http://www.bom.gov.au/fwo/IDN60801/IDN60801.95869.axf

JavaScript Object Notation format (JSON) in row-major order
http://www.bom.gov.au/fwo/IDN60801/IDN60801.95869.json